Time;durP1;ratioP1;P1;durP2;ratioP2;P2;SDS_P1;SDS_P2;PMS_P1;PMS_P2;Temp;Humidity;BMP_temperature;BMP_pressure;BME280_temperature;BME280_humidity;BME280_pressure;Samples;Min_cycle;Max_cycle;Signal;HPM_P1;HPM_P2
2022/09/18 00:00:16;;;;;;;6.45;2.00;;;;;;;10.26;100.00;100727.81;681534;28;931;-62
2022/09/18 00:00:38;;;;;;;8.63;2.20;;;;;;;10.21;100.00;100725.25;682099;28;1580;-61
2022/09/18 00:01:00;;;;;;;6.80;2.22;;;;;;;10.19;100.00;100726.97;680272;28;4556;-61
2022/09/18 00:01:23;;;;;;;7.07;2.30;;;;;;;10.16;100.00;100719.16;681357;28;1064;-61
2022/09/18 00:01:44;;;;;;;7.13;2.40;;;;;;;10.14;100.00;100732.22;680949;28;1284;-62
2022/09/18 00:02:04;;;;;;;7.90;2.05;;;;;;;10.15;100.00;100728.75;681543;28;1041;-62
2022/09/18 00:02:25;;;;;;;7.87;2.10;;;;;;;10.15;100.00;100728.75;682280;28;1164;-63
2022/09/18 00:02:46;;;;;;;6.13;1.92;;;;;;;10.33;100.00;100719.13;681192;28;1473;-62
2022/09/18 00:03:06;;;;;;;7.78;2.22;;;;;;;10.39;100.00;100721.75;681742;28;1207;-62
2022/09/18 00:03:27;;;;;;;6.57;2.20;;;;;;;10.34;100.00;100728.69;681674;28;1080;-62
2022/09/18 00:03:47;;;;;;;5.03;1.88;;;;;;;10.37;100.00;100724.34;680227;28;4380;-64
2022/09/18 00:04:12;;;;;;;6.10;2.00;;;;;;;10.49;100.00;100727.81;681781;28;1950;-62
2022/09/18 00:04:33;;;;;;;6.38;2.38;;;;;;;10.44;100.00;100720.00;678419;29;1089;-62
2022/09/18 00:04:53;;;;;;;7.20;2.30;;;;;;;10.40;100.00;100720.88;677653;29;1171;-63
2022/09/18 00:05:14;;;;;;;7.80;2.30;;;;;;;10.36;100.00;100721.75;679382;28;1093;-63
2022/09/18 00:05:35;;;;;;;7.50;2.40;;;;;;;10.31;100.00;100726.09;679842;28;1113;-62
2022/09/18 00:05:55;;;;;;;6.10;2.40;;;;;;;10.27;100.00;100726.97;677609;29;1199;-62
2022/09/18 00:06:20;;;;;;;6.00;2.10;;;;;;;10.27;100.00;100719.97;675758;29;1097;-62
2022/09/18 00:06:42;;;;;;;6.15;1.95;;;;;;;10.48;100.00;100721.72;678371;28;4381;-61
2022/09/18 00:07:02;;;;;;;6.68;2.20;;;;;;;10.55;100.00;100726.03;679695;28;1167;-62
2022/09/18 00:07:23;;;;;;;7.70;2.40;;;;;;;10.48;100.00;100716.50;679248;28;1132;-62
2022/09/18 00:07:43;;;;;;;8.60;2.30;;;;;;;10.54;100.00;100716.44;680528;28;1262;-61
2022/09/18 00:08:04;;;;;;;7.28;2.30;;;;;;;10.61;100.00;100716.44;682130;28;1143;-61
2022/09/18 00:08:24;;;;;;;4.80;2.10;;;;;;;10.57;100.00;100724.28;678670;28;1101;-62
2022/09/18 00:08:48;;;;;;;6.93;2.30;;;;;;;10.57;100.00;100720.81;681600;28;1230;-62
2022/09/18 00:09:13;;;;;;;6.88;2.20;;;;;;;10.61;100.00;100721.69;680488;28;1271;-62
2022/09/18 00:09:33;;;;;;;7.57;2.03;;;;;;;10.61;100.00;100717.31;678730;28;1167;-62
2022/09/18 00:09:53;;;;;;;9.07;2.30;;;;;;;10.66;100.00;100725.13;678769;28;4340;-62
2022/09/18 00:10:14;;;;;;;7.85;2.45;;;;;;;10.72;100.00;100712.03;678882;28;1141;-62
2022/09/18 00:10:42;;;;;;;7.33;2.10;;;;;;;10.67;100.00;100716.41;678986;29;1117;-63
2022/09/18 00:11:07;;;;;;;5.57;2.10;;;;;;;10.65;100.00;100712.94;681405;28;1151;-61
2022/09/18 00:11:31;;;;;;;6.80;2.38;;;;;;;10.76;100.00;100721.59;681469;28;1224;-64
2022/09/18 00:11:52;;;;;;;6.63;2.10;;;;;;;10.64;100.00;100722.50;683083;28;1084;-62
2022/09/18 00:12:12;;;;;;;6.43;2.37;;;;;;;10.51;100.00;100724.31;681354;28;1089;-62
2022/09/18 00:12:33;;;;;;;6.45;2.38;;;;;;;10.43;100.00;100722.63;681845;28;1053;-62
2022/09/18 00:12:53;;;;;;;7.07;2.40;;;;;;;10.43;100.00;100717.38;681791;28;4507;-62
2022/09/18 00:13:14;;;;;;;7.15;2.13;;;;;;;10.34;100.00;100720.84;682233;28;1127;-62
2022/09/18 00:13:35;;;;;;;6.03;2.30;;;;;;;10.45;100.00;100719.09;683001;28;1175;-63
2022/09/18 00:13:56;;;;;;;6.32;2.58;;;;;;;10.50;100.00;100721.72;682966;28;1225;-61
2022/09/18 00:14:21;;;;;;;6.35;2.28;;;;;;;10.43;100.00;100718.25;681320;28;1140;-62
2022/09/18 00:14:42;;;;;;;7.70;2.38;;;;;;;10.41;100.00;100725.19;681694;28;1138;-61
2022/09/18 00:15:02;;;;;;;7.43;2.13;;;;;;;10.39;100.00;100724.34;681652;28;1254;-61
2022/09/18 00:15:23;;;;;;;8.23;2.50;;;;;;;10.48;100.00;100711.25;680447;28;1069;-62
2022/09/18 00:15:53;;;;;;;5.60;2.40;;;;;;;10.49;100.00;100726.03;677268;28;5054;-63
2022/09/18 00:16:14;;;;;;;5.45;2.10;;;;;;;10.59;100.00;100724.25;681002;28;3706;-63
2022/09/18 00:16:35;;;;;;;6.60;2.40;;;;;;;10.53;100.00;100725.16;682744;28;1305;-61
2022/09/18 00:16:55;;;;;;;6.80;2.22;;;;;;;10.48;100.00;100716.50;682284;28;1286;-61
2022/09/18 00:17:15;;;;;;;6.63;2.20;;;;;;;10.56;100.00;100717.34;681535;28;1108;-62
2022/09/18 00:17:37;;;;;;;6.50;2.15;;;;;;;10.54;100.00;100724.28;680489;28;1126;-62
2022/09/18 00:17:57;;;;;;;6.85;2.28;;;;;;;10.70;100.00;100721.63;679461;28;1088;-63
2022/09/18 00:18:18;;;;;;;6.80;2.40;;;;;;;10.66;100.00;100723.38;679327;28;1120;-62
2022/09/18 00:18:39;;;;;;;5.60;2.10;;;;;;;10.60;100.00;100722.53;678070;28;4399;-61
2022/09/18 00:18:59;;;;;;;6.03;2.25;;;;;;;10.59;100.00;100723.41;677544;29;1112;-62
2022/09/18 00:19:20;;;;;;;5.72;2.20;;;;;;;10.54;100.00;100726.91;678609;28;1061;-62
2022/09/18 00:19:41;;;;;;;5.57;2.20;;;;;;;10.49;100.00;100730.41;680935;28;1085;-61
2022/09/18 00:20:01;;;;;;;5.67;2.20;;;;;;;10.49;100.00;100728.66;682677;28;1255;-64
2022/09/18 00:20:22;;;;;;;6.50;2.10;;;;;;;10.48;100.00;100726.94;684512;28;1100;-65
2022/09/18 00:20:42;;;;;;;6.77;2.10;;;;;;;10.40;100.00;100723.50;684531;28;1027;-62
2022/09/18 00:21:08;;;;;;;6.68;2.13;;;;;;;10.31;100.00;100720.84;684716;28;1155;-62
2022/09/18 00:21:30;;;;;;;5.95;2.30;;;;;;;10.27;100.00;100722.59;684073;28;1418;-62
2022/09/18 00:21:51;;;;;;;5.40;2.20;;;;;;;10.29;100.00;100720.88;681565;28;5214;-62
2022/09/18 00:22:11;;;;;;;5.25;2.30;;;;;;;10.33;100.00;100726.97;680594;28;1480;-63
2022/09/18 00:22:32;;;;;;;6.27;2.30;;;;;;;10.30;100.00;100726.94;681000;28;1143;-63
2022/09/18 00:22:52;;;;;;;6.28;2.33;;;;;;;10.32;100.00;100730.44;684823;28;1039;-63
2022/09/18 00:23:14;;;;;;;7.10;2.10;;;;;;;10.42;100.00;100726.94;683826;28;1080;-63
2022/09/18 00:23:35;;;;;;;6.35;2.15;;;;;;;10.47;100.00;100725.19;684866;28;1228;-63
2022/09/18 00:23:58;;;;;;;5.93;2.00;;;;;;;10.42;100.00;100732.19;684973;28;1104;-62
2022/09/18 00:24:19;;;;;;;6.38;2.10;;;;;;;10.44;100.00;100733.06;681951;28;1914;-63
2022/09/18 00:24:39;;;;;;;5.05;2.10;;;;;;;10.54;100.00;100734.75;677625;28;4515;-63
2022/09/18 00:25:00;;;;;;;5.53;2.10;;;;;;;10.64;100.00;100729.50;679727;28;1044;-63
2022/09/18 00:25:20;;;;;;;7.15;2.20;;;;;;;10.61;100.00;100727.75;679245;28;1093;-62
2022/09/18 00:25:40;;;;;;;7.90;2.30;;;;;;;10.52;100.00;100735.63;679205;28;1127;-61
2022/09/18 00:26:02;;;;;;;8.90;2.50;;;;;;;10.45;100.00;100737.38;679805;28;1069;-62
2022/09/18 00:26:26;;;;;;;5.88;2.15;;;;;;;10.39;100.00;100726.97;682267;28;1043;-63
2022/09/18 00:26:46;;;;;;;6.85;2.25;;;;;;;10.35;100.00;100726.09;684741;28;1080;-63
2022/09/18 00:27:07;;;;;;;6.90;2.30;;;;;;;10.34;100.00;100731.28;682066;28;1288;-62
2022/09/18 00:27:27;;;;;;;7.83;2.63;;;;;;;10.28;100.00;100729.56;678800;28;1321;-64
2022/09/18 00:27:48;;;;;;;5.70;2.40;;;;;;;10.20;100.00;100719.16;678452;28;4392;-63
2022/09/18 00:28:08;;;;;;;6.40;2.22;;;;;;;10.19;100.00;100724.34;680072;28;1077;-62
2022/09/18 00:28:29;;;;;;;7.10;2.20;;;;;;;10.18;100.00;100733.94;678803;28;1144;-62
2022/09/18 00:28:49;;;;;;;5.85;2.17;;;;;;;10.17;100.00;100729.59;676970;28;1248;-64
2022/09/18 00:29:11;;;;;;;5.77;2.10;;;;;;;10.19;100.00;100734.81;680873;28;1614;-63
2022/09/18 00:29:32;;;;;;;5.68;2.30;;;;;;;10.42;100.00;100724.34;680635;28;1101;-63
2022/09/18 00:29:52;;;;;;;6.03;2.30;;;;;;;10.46;100.00;100733.03;682668;28;1288;-62
2022/09/18 00:30:12;;;;;;;5.90;2.20;;;;;;;10.41;100.00;100735.66;680012;28;1153;-62
2022/09/18 00:30:33;;;;;;;6.38;2.15;;;;;;;10.38;100.00;100728.72;679258;28;1168;-63
2022/09/18 00:31:01;;;;;;;6.70;2.10;;;;;;;10.44;100.00;100727.81;677800;28;4555;-63
2022/09/18 00:31:24;;;;;;;5.95;2.13;;;;;;;10.47;100.00;100727.81;674964;29;1148;-63
2022/09/18 00:31:45;;;;;;;5.30;2.00;;;;;;;10.47;100.00;100734.78;676161;29;1264;-62
2022/09/18 00:32:05;;;;;;;5.97;1.93;;;;;;;10.54;100.00;100726.91;673899;29;1241;-63
2022/09/18 00:32:26;;;;;;;5.97;2.03;;;;;;;10.50;100.00;100725.19;673674;29;1112;-62
2022/09/18 00:32:46;;;;;;;6.23;2.20;;;;;;;10.47;100.00;100725.19;675454;29;1642;-63
2022/09/18 00:33:06;;;;;;;4.22;2.20;;;;;;;10.48;100.00;100729.56;678342;28;1384;-63
2022/09/18 00:33:27;;;;;;;6.13;2.37;;;;;;;10.55;100.00;100726.03;679149;28;1394;-63
2022/09/18 00:33:47;;;;;;;7.17;2.47;;;;;;;10.56;100.00;100727.78;674802;28;5261;-62
2022/09/18 00:34:13;;;;;;;8.50;2.45;;;;;;;10.61;100.00;100726.91;675662;29;1279;-65
2022/09/18 00:34:33;;;;;;;6.90;2.40;;;;;;;10.55;100.00;100731.28;677156;29;1304;-64
2022/09/18 00:34:54;;;;;;;7.07;2.50;;;;;;;10.50;100.00;100726.94;676881;28;1322;-62
2022/09/18 00:35:14;;;;;;;7.77;2.90;;;;;;;10.47;100.00;100726.94;677885;28;1116;-62
2022/09/18 00:35:40;;;;;;;7.67;2.77;;;;;;;10.43;100.00;100727.84;677841;28;1161;-62
2022/09/18 00:36:03;;;;;;;6.30;2.50;;;;;;;10.56;100.00;100725.19;679133;28;1069;-62
2022/09/18 00:36:24;;;;;;;5.97;2.45;;;;;;;10.53;100.00;100725.16;682937;28;1250;-62
2022/09/18 00:36:44;;;;;;;5.90;2.35;;;;;;;10.52;100.00;100722.56;683685;28;4324;-62
2022/09/18 00:37:05;;;;;;;7.57;2.53;;;;;;;10.55;100.00;100723.44;680996;28;1697;-63
2022/09/18 00:37:26;;;;;;;8.13;2.60;;;;;;;10.56;100.00;100722.56;678593;28;1228;-63
2022/09/18 00:37:46;;;;;;;7.47;2.42;;;;;;;10.55;100.00;100722.56;676343;29;1276;-63
2022/09/18 00:38:07;;;;;;;6.03;2.35;;;;;;;10.59;100.00;100724.25;675827;29;1078;-63
2022/09/18 00:38:30;;;;;;;6.03;2.50;;;;;;;10.54;100.00;100720.81;676690;29;1437;-64
2022/09/18 00:38:53;;;;;;;7.47;2.67;;;;;;;10.44;100.00;100727.81;674540;29;4998;-63
2022/09/18 00:39:13;;;;;;;7.50;2.70;;;;;;;10.38;100.00;100726.09;676381;28;1140;-63
2022/09/18 00:39:33;;;;;;;6.78;2.70;;;;;;;10.37;100.00;100726.09;676735;29;1305;-62
2022/09/18 00:39:54;;;;;;;5.87;2.50;;;;;;;10.34;100.00;100723.44;677846;28;4474;-63
2022/09/18 00:40:16;;;;;;;5.93;2.50;;;;;;;10.37;100.00;100728.69;677179;29;1161;-63
2022/09/18 00:40:37;;;;;;;6.65;2.47;;;;;;;10.36;100.00;100720.00;677454;29;1168;-62
2022/09/18 00:41:05;;;;;;;8.00;2.23;;;;;;;10.36;100.00;100721.75;678913;29;1618;-63
2022/09/18 00:41:30;;;;;;;8.10;2.45;;;;;;;10.34;100.00;100721.75;678335;28;1065;-62
2022/09/18 00:41:50;;;;;;;6.63;2.53;;;;;;;10.35;100.00;100726.09;678376;29;1527;-61
2022/09/18 00:42:11;;;;;;;5.85;2.40;;;;;;;10.34;100.00;100723.44;680169;28;1240;-62
2022/09/18 00:42:32;;;;;;;5.20;2.20;;;;;;;10.42;100.00;100726.09;678956;29;1473;-62
2022/09/18 00:42:52;;;;;;;7.60;2.30;;;;;;;10.41;100.00;100725.19;677559;28;4599;-61
2022/09/18 00:43:33;;;;;;;8.67;2.47;;;;;;;10.47;100.00;100730.44;678187;28;1262;-62
2022/09/18 00:44:14;;;;;;;5.82;2.25;;;;;;;10.43;100.00;100731.31;679916;28;1377;-62
2022/09/18 00:44:38;;;;;;;7.32;2.17;;;;;;;10.36;100.00;100726.97;681400;28;1651;-65
2022/09/18 00:44:59;;;;;;;6.00;2.20;;;;;;;10.37;100.00;100728.69;680093;28;2152;-62
2022/09/18 00:45:20;;;;;;;6.30;2.17;;;;;;;10.37;100.00;100721.75;680071;28;1054;-63
2022/09/18 00:45:40;;;;;;;8.05;2.40;;;;;;;10.46;100.00;100728.69;678464;28;4706;-62
2022/09/18 00:46:06;;;;;;;7.32;2.40;;;;;;;10.56;100.00;100730.41;679824;28;1378;-62
2022/09/18 00:46:32;;;;;;;6.43;2.25;;;;;;;10.62;100.00;100723.38;678770;29;1224;-62
2022/09/18 00:46:55;;;;;;;7.40;2.30;;;;;;;10.59;100.00;100729.50;678633;28;1263;-62
2022/09/18 00:47:25;;;;;;;6.13;2.10;;;;;;;10.56;100.00;100729.50;676353;28;3727;-61
2022/09/18 00:47:50;;;;;;;5.78;2.25;;;;;;;10.64;100.00;100721.66;676131;28;2361;-62
2022/09/18 00:48:10;;;;;;;6.95;2.30;;;;;;;10.63;100.00;100727.75;678482;28;1407;-61
2022/09/18 00:49:29;;;;;;;5.33;2.30;;;;;;;10.55;100.00;100722.56;678665;29;1422;-63
2022/09/18 00:50:04;;;;;;;5.53;2.13;;;;;;;10.62;100.00;100720.78;666726;29;4859;-63
2022/09/18 00:50:26;;;;;;;7.13;2.20;;;;;;;10.61;100.00;100719.06;682914;28;1484;-62
2022/09/18 00:50:47;;;;;;;6.00;2.38;;;;;;;10.53;100.00;100719.06;683797;28;1333;-62
2022/09/18 00:51:08;;;;;;;5.95;2.40;;;;;;;10.50;100.00;100714.72;680877;28;1270;-65
2022/09/18 00:51:32;;;;;;;5.30;2.22;;;;;;;10.62;100.00;100712.94;682087;28;1349;-61
2022/09/18 00:51:55;;;;;;;6.40;2.25;;;;;;;10.64;100.00;100711.19;682095;28;1193;-61
2022/09/18 00:52:20;;;;;;;5.88;2.35;;;;;;;10.61;100.00;100706.84;677985;28;1506;-62
2022/09/18 00:52:55;;;;;;;6.30;2.20;;;;;;;10.55;100.00;100712.97;676813;29;1430;-61
2022/09/18 00:53:16;;;;;;;6.55;2.40;;;;;;;10.58;100.00;100717.31;676988;29;1289;-62
2022/09/18 00:53:39;;;;;;;6.47;2.50;;;;;;;10.66;100.00;100715.56;677332;29;1261;-62
2022/09/18 00:54:26;;;;;;;7.05;2.17;;;;;;;10.64;100.00;100721.66;672259;29;1067;-62
2022/09/18 00:54:49;;;;;;;6.60;2.20;;;;;;;10.58;100.00;100722.56;675820;29;4763;-62
2022/09/18 00:55:10;;;;;;;6.75;2.13;;;;;;;10.50;100.00;100721.72;677769;28;1615;-62
2022/09/18 00:55:33;;;;;;;5.53;2.00;;;;;;;10.44;100.00;100713.88;678476;28;1374;-67
2022/09/18 00:55:56;;;;;;;6.60;2.00;;;;;;;10.51;100.00;100718.22;678014;29;2100;-62
2022/09/18 00:56:16;;;;;;;5.95;2.20;;;;;;;10.62;100.00;100713.81;679536;28;1175;-61
2022/09/18 00:56:37;;;;;;;6.80;2.23;;;;;;;10.54;100.00;100720.81;679450;28;1109;-61
2022/09/18 00:57:07;;;;;;;8.13;2.60;;;;;;;10.49;100.00;100717.34;676764;28;1152;-61
2022/09/18 00:57:33;;;;;;;6.53;2.50;;;;;;;10.53;100.00;100725.16;678809;28;1439;-62
2022/09/18 00:57:58;;;;;;;7.68;2.60;;;;;;;10.61;100.00;100717.31;677610;28;4329;-62
2022/09/18 00:58:19;;;;;;;7.00;2.40;;;;;;;10.57;100.00;100716.44;678085;28;1097;-62
2022/09/18 00:58:40;;;;;;;5.30;2.20;;;;;;;10.53;100.00;100713.84;679646;28;1155;-63
2022/09/18 00:59:01;;;;;;;6.93;2.15;;;;;;;10.62;100.00;100723.38;681593;28;1117;-61
2022/09/18 00:59:26;;;;;;;6.10;2.07;;;;;;;10.60;100.00;100717.31;677093;28;1113;-62
2022/09/18 00:59:49;;;;;;;8.23;2.60;;;;;;;10.60;100.00;100714.69;679127;28;1279;-61
2022/09/18 01:00:13;;;;;;;6.28;2.40;;;;;;;10.58;100.00;100722.56;677151;28;1897;-62
2022/09/18 01:00:37;;;;;;;7.18;2.35;;;;;;;10.57;100.00;100726.88;675269;29;1113;-63
2022/09/18 01:00:58;;;;;;;5.10;2.10;;;;;;;10.49;100.00;100723.44;674540;29;4287;-63
2022/09/18 01:01:18;;;;;;;6.55;2.40;;;;;;;10.48;100.00;100726.94;675978;29;1171;-62
2022/09/18 01:01:39;;;;;;;8.57;2.20;;;;;;;10.53;100.00;100714.72;676435;29;1086;-63
2022/09/18 01:02:00;;;;;;;7.82;2.33;;;;;;;10.50;100.00;100725.19;676695;29;1134;-63
2022/09/18 01:02:21;;;;;;;5.82;2.30;;;;;;;10.45;100.00;100715.63;678532;29;1241;-62
2022/09/18 01:02:44;;;;;;;7.13;2.22;;;;;;;10.51;100.00;100720.84;676274;29;1030;-63
2022/09/18 01:03:05;;;;;;;6.28;2.03;;;;;;;10.61;100.00;100726.91;676894;29;983;-62
2022/09/18 01:03:28;;;;;;;5.65;2.10;;;;;;;10.59;100.00;100723.41;679557;28;1112;-62
2022/09/18 01:03:49;;;;;;;5.60;2.45;;;;;;;10.55;100.00;100726.03;680723;28;4449;-62
2022/09/18 01:04:13;;;;;;;6.65;2.50;;;;;;;10.54;100.00;100724.28;678293;28;1935;-63
2022/09/18 01:04:33;;;;;;;5.65;2.20;;;;;;;10.62;100.00;100724.28;678478;28;1400;-62
2022/09/18 01:04:55;;;;;;;6.33;2.13;;;;;;;10.59;100.00;100728.63;679160;28;1385;-62
2022/09/18 01:05:37;;;;;;;8.15;2.35;;;;;;;10.64;100.00;100721.66;678320;28;1596;-62
2022/09/18 01:06:12;;;;;;;6.75;2.50;;;;;;;10.59;100.00;100724.25;679605;28;1228;-63
2022/09/18 01:06:52;;;;;;;7.22;2.35;;;;;;;10.54;100.00;100726.06;682059;28;1148;-61
2022/09/18 01:07:39;;;;;;;7.13;2.20;;;;;;;10.51;100.00;100716.47;679781;28;4829;-62
2022/09/18 01:08:06;;;;;;;6.18;2.38;;;;;;;10.45;100.00;100728.69;680265;28;1164;-63
2022/09/18 01:08:59;;;;;;;6.43;2.30;;;;;;;10.41;100.00;100725.19;677276;29;1227;-62
2022/09/18 01:09:31;;;;;;;5.88;2.42;;;;;;;10.36;100.00;100726.97;666499;29;1260;-63
2022/09/18 01:09:58;;;;;;;4.65;1.98;;;;;;;10.52;100.00;100719.94;675175;29;4386;-63
2022/09/18 01:10:44;;;;;;;5.78;2.05;;;;;;;10.50;100.00;100727.78;677603;29;1149;-62
2022/09/18 01:11:23;;;;;;;4.20;2.10;;;;;;;10.39;100.00;100724.34;677715;28;1264;-61
2022/09/18 01:11:53;;;;;;;5.93;2.20;;;;;;;10.34;100.00;100723.44;681687;28;1188;-62
2022/09/18 01:12:25;;;;;;;6.78;2.20;;;;;;;10.30;100.00;100724.34;682120;28;2153;-64
2022/09/18 01:12:59;;;;;;;7.20;2.30;;;;;;;10.41;100.00;100725.19;676527;28;4761;-62
2022/09/18 01:13:52;;;;;;;8.93;2.20;;;;;;;10.35;100.00;100726.09;675639;29;1186;-63
2022/09/18 01:14:16;;;;;;;6.43;2.35;;;;;;;10.46;100.00;100725.22;679457;28;1200;-62
2022/09/18 01:14:39;;;;;;;5.40;2.30;;;;;;;10.44;100.00;100724.31;677823;28;1124;-63
2022/09/18 01:15:02;;;;;;;5.72;2.28;;;;;;;10.42;100.00;100726.09;681083;28;1291;-63
2022/09/18 01:15:51;;;;;;;7.13;2.50;;;;;;;10.44;100.00;100730.44;681492;28;1213;-62
2022/09/18 01:16:24;;;;;;;6.15;2.10;;;;;;;10.52;100.00;100728.69;680697;28;4820;-64
2022/09/18 01:16:57;;;;;;;5.70;2.28;;;;;;;10.53;100.00;100730.38;681320;28;1428;-61
2022/09/18 01:17:28;;;;;;;6.45;2.20;;;;;;;10.52;100.00;100727.78;681712;28;1124;-63
2022/09/18 01:18:10;;;;;;;8.00;2.10;;;;;;;10.33;100.00;100727.81;678242;29;1466;-62
2022/09/18 01:18:55;;;;;;;7.60;2.35;;;;;;;10.34;100.00;100727.00;676734;29;1253;-62
2022/09/18 01:19:50;;;;;;;5.72;2.50;;;;;;;10.22;100.00;100730.44;677171;28;5104;-62
2022/09/18 01:20:43;;;;;;;8.02;2.50;;;;;;;10.20;100.00;100726.09;676674;29;1322;-62
2022/09/18 01:21:14;;;;;;;6.95;2.20;;;;;;;10.33;100.00;100732.19;671030;29;1505;-63
2022/09/18 01:21:46;;;;;;;6.70;2.15;;;;;;;10.31;100.00;100731.31;670872;29;1248;-62
2022/09/18 01:22:30;;;;;;;6.00;2.20;;;;;;;10.38;100.00;100727.81;665619;29;6363;-62
2022/09/18 01:23:12;;;;;;;6.22;2.10;;;;;;;10.43;100.00;100733.91;670988;29;1364;-62
2022/09/18 01:24:00;;;;;;;6.50;2.33;;;;;;;10.46;100.00;100728.69;678485;28;1084;-62
2022/09/18 01:24:48;;;;;;;8.75;2.22;;;;;;;10.42;100.00;100733.94;681347;28;1899;-61
2022/09/18 01:25:46;;;;;;;6.40;2.28;;;;;;;10.44;100.00;100727.81;680380;28;6258;-63
2022/09/18 01:26:52;;;;;;;6.40;2.15;;;;;;;10.51;100.00;100729.53;680197;28;1176;-63
2022/09/18 01:27:45;;;;;;;7.20;2.25;;;;;;;10.48;100.00;100723.44;681552;28;1174;-63
2022/09/18 01:28:23;;;;;;;7.22;2.20;;;;;;;10.61;100.00;100733.00;675400;29;5083;-62
2022/09/18 01:28:55;;;;;;;5.97;2.13;;;;;;;10.51;100.00;100728.69;675970;29;1245;-62
2022/09/18 01:29:25;;;;;;;7.75;2.38;;;;;;;10.48;100.00;100726.06;675035;29;1257;-62
2022/09/18 01:30:02;;;;;;;7.40;2.38;;;;;;;10.50;100.00;100726.94;673741;29;1284;-63
2022/09/18 01:30:23;;;;;;;6.38;2.28;;;;;;;10.55;100.00;100731.28;670993;29;1400;-62
2022/09/18 01:30:46;;;;;;;6.63;2.17;;;;;;;10.53;100.00;100727.78;673253;29;4602;-62
2022/09/18 01:31:19;;;;;;;5.13;2.10;;;;;;;10.51;100.00;100733.91;675548;29;1445;-63
2022/09/18 01:31:50;;;;;;;7.15;2.33;;;;;;;10.43;100.00;100733.06;676195;29;1191;-63
2022/09/18 01:32:19;;;;;;;7.18;2.50;;;;;;;10.31;100.00;100729.56;677180;28;2227;-62
2022/09/18 01:32:45;;;;;;;8.27;2.38;;;;;;;10.36;100.00;100726.97;679027;28;1445;-62
2022/09/18 01:33:13;;;;;;;6.47;2.22;;;;;;;10.37;100.00;100729.59;680788;28;1455;-62
2022/09/18 01:33:42;;;;;;;6.32;2.25;;;;;;;10.34;100.00;100729.59;676688;29;1433;-62
2022/09/18 01:34:14;;;;;;;6.38;2.10;;;;;;;10.46;100.00;100728.69;678568;28;4909;-63
2022/09/18 01:34:49;;;;;;;6.60;2.10;;;;;;;10.43;100.00;100726.09;678236;28;1374;-63
2022/09/18 01:35:24;;;;;;;5.43;2.30;;;;;;;10.37;100.00;100728.69;677709;28;1276;-63
2022/09/18 01:35:52;;;;;;;6.93;2.30;;;;;;;10.37;100.00;100729.59;678721;29;1125;-63
2022/09/18 01:36:16;;;;;;;6.50;2.30;;;;;;;10.44;100.00;100733.06;679038;28;1061;-62
2022/09/18 01:36:43;;;;;;;6.38;2.30;;;;;;;10.52;100.00;100727.78;679610;28;1297;-62
2022/09/18 01:37:15;;;;;;;6.53;2.50;;;;;;;10.63;100.00;100719.91;681858;28;4822;-63
2022/09/18 01:37:44;;;;;;;9.25;2.50;;;;;;;10.60;100.00;100725.16;684086;28;1194;-62
2022/09/18 01:38:12;;;;;;;7.80;2.10;;;;;;;10.55;100.00;100725.19;680957;28;2137;-63
2022/09/18 01:38:40;;;;;;;7.35;2.50;;;;;;;10.61;100.00;100732.13;681851;28;1792;-63
2022/09/18 01:39:12;;;;;;;4.30;2.10;;;;;;;10.55;100.00;100730.41;683386;28;1861;-62
2022/09/18 01:39:41;;;;;;;5.90;2.10;;;;;;;10.61;100.00;100726.91;678141;28;1169;-63
2022/09/18 01:40:12;;;;;;;5.97;2.15;;;;;;;10.65;100.00;100729.50;677817;28;5135;-62
2022/09/18 01:40:39;;;;;;;8.02;2.15;;;;;;;10.68;100.00;100732.09;673207;29;1253;-63
2022/09/18 01:41:19;;;;;;;5.53;2.20;;;;;;;10.65;100.00;100721.66;675524;29;1799;-62
2022/09/18 01:41:49;;;;;;;7.38;2.40;;;;;;;10.67;100.00;100721.63;675839;29;1083;-62
2022/09/18 01:42:12;;;;;;;7.03;2.00;;;;;;;10.55;100.00;100723.44;677205;29;1101;-62
2022/09/18 01:42:35;;;;;;;6.78;2.10;;;;;;;10.48;100.00;100723.44;679009;29;1101;-62
2022/09/18 01:43:01;;;;;;;6.32;2.15;;;;;;;10.56;100.00;100727.78;675656;28;4365;-63
2022/09/18 01:43:24;;;;;;;7.30;2.20;;;;;;;10.53;100.00;100733.00;674047;29;1308;-62
2022/09/18 01:43:49;;;;;;;6.65;2.20;;;;;;;10.48;100.00;100724.34;675636;29;1342;-63
2022/09/18 01:44:17;;;;;;;7.80;2.10;;;;;;;10.49;100.00;100722.56;678972;28;1951;-62
2022/09/18 01:44:41;;;;;;;5.85;2.05;;;;;;;10.54;100.00;100734.75;681300;28;1669;-62
2022/09/18 01:45:08;;;;;;;6.18;2.28;;;;;;;10.48;100.00;100726.94;677607;29;1227;-62
2022/09/18 01:45:34;;;;;;;7.13;2.03;;;;;;;10.46;100.00;100733.03;677568;28;1253;-63
2022/09/18 01:46:00;;;;;;;6.72;2.22;;;;;;;10.46;100.00;100728.69;677646;28;4295;-64
2022/09/18 01:46:25;;;;;;;6.93;2.30;;;;;;;10.40;100.00;100728.72;675208;29;1472;-62
2022/09/18 01:46:48;;;;;;;6.55;1.98;;;;;;;10.39;100.00;100726.97;676900;29;1219;-64
2022/09/18 01:47:13;;;;;;;5.32;2.00;;;;;;;10.36;100.00;100732.22;677987;28;1537;-63
2022/09/18 01:47:40;;;;;;;5.70;2.00;;;;;;;10.30;100.00;100726.94;680594;28;1356;-63
2022/09/18 01:48:07;;;;;;;5.38;2.17;;;;;;;10.22;100.00;100725.22;676552;29;1644;-62
2022/09/18 01:48:37;;;;;;;7.50;2.10;;;;;;;10.21;100.00;100731.31;672929;29;1376;-63
2022/09/18 01:49:04;;;;;;;7.03;2.10;;;;;;;10.17;100.00;100726.97;675244;29;5009;-63
2022/09/18 01:49:37;;;;;;;7.97;2.30;;;;;;;10.18;100.00;100723.50;675237;29;1145;-62
2022/09/18 01:50:01;;;;;;;8.05;2.13;;;;;;;10.28;100.00;100726.09;677565;29;1329;-64
2022/09/18 01:50:26;;;;;;;7.60;2.10;;;;;;;10.37;100.00;100719.13;679277;28;1477;-63
2022/09/18 01:50:51;;;;;;;5.00;1.90;;;;;;;10.49;100.00;100725.19;679027;29;1247;-63
2022/09/18 01:51:20;;;;;;;6.93;2.03;;;;;;;10.46;100.00;100733.03;678765;28;1390;-63
2022/09/18 01:51:49;;;;;;;5.10;1.80;;;;;;;10.47;100.00;100725.19;678775;28;4350;-63
2022/09/18 01:52:18;;;;;;;6.57;2.03;;;;;;;10.54;100.00;100732.13;675507;29;1512;-63
2022/09/18 01:52:47;;;;;;;5.60;1.98;;;;;;;10.43;100.00;100727.84;676100;29;1685;-63
2022/09/18 01:53:18;;;;;;;5.93;1.80;;;;;;;10.38;100.00;100725.22;675990;28;1092;-64
2022/09/18 01:53:42;;;;;;;5.43;2.00;;;;;;;10.35;100.00;100728.69;678861;28;1887;-63
2022/09/18 01:54:09;;;;;;;4.82;1.70;;;;;;;10.34;100.00;100731.28;679531;28;1252;-62
2022/09/18 01:54:36;;;;;;;4.65;1.67;;;;;;;10.30;100.00;100725.22;678698;29;1428;-62
2022/09/18 01:55:01;;;;;;;6.00;1.95;;;;;;;10.33;100.00;100727.81;675049;29;4593;-63
2022/09/18 01:55:27;;;;;;;4.75;1.70;;;;;;;10.41;100.00;100725.19;674825;29;993;-64
2022/09/18 01:56:00;;;;;;;5.22;2.05;;;;;;;10.50;100.00;100717.34;676807;29;1175;-63
2022/09/18 01:56:25;;;;;;;4.97;2.00;;;;;;;10.50;100.00;100725.19;673798;29;1356;-63
2022/09/18 01:57:19;;;;;;;5.35;1.88;;;;;;;10.41;100.00;100729.56;679192;28;1488;-63
2022/09/18 01:57:50;;;;;;;6.38;2.05;;;;;;;10.28;100.00;100723.47;675905;29;4451;-63
2022/09/18 01:58:16;;;;;;;6.80;2.10;;;;;;;10.23;100.00;100719.13;676981;29;1506;-63
2022/09/18 01:58:37;;;;;;;5.72;1.88;;;;;;;10.31;100.00;100726.09;673879;29;1391;-62
2022/09/18 01:59:05;;;;;;;6.57;1.90;;;;;;;10.28;100.00;100720.88;673624;29;1440;-63
2022/09/18 01:59:43;;;;;;;6.25;1.90;;;;;;;10.34;100.00;100724.38;675615;29;1564;-62
2022/09/18 02:00:11;;;;;;;4.78;1.85;;;;;;;10.33;100.00;100717.38;675585;29;1363;-62
2022/09/18 02:00:43;;;;;;;6.57;1.80;;;;;;;10.37;100.00;100723.47;678051;28;1124;-63
2022/09/18 02:01:11;;;;;;;5.65;1.90;;;;;;;10.30;100.00;100716.50;679211;28;6660;-64
2022/09/18 02:01:36;;;;;;;6.03;1.90;;;;;;;10.28;100.00;100719.13;678661;29;1401;-63
2022/09/18 02:01:59;;;;;;;6.95;1.90;;;;;;;10.35;100.00;100720.00;679856;28;1243;-62
2022/09/18 02:02:27;;;;;;;6.55;1.80;;;;;;;10.40;100.00;100720.88;677670;28;1177;-63
2022/09/18 02:02:57;;;;;;;6.13;1.88;;;;;;;10.36;100.00;100724.38;675845;29;1273;-62
2022/09/18 02:03:32;;;;;;;5.80;2.00;;;;;;;10.22;100.00;100714.78;675519;29;1717;-63
2022/09/18 02:04:01;;;;;;;6.35;1.70;;;;;;;10.19;100.00;100727.84;669092;29;4438;-64
2022/09/18 02:04:27;;;;;;;6.88;1.80;;;;;;;10.18;100.00;100726.09;673605;29;1919;-63